| time (UTC) | temp F | wind direction | speed MPH | gust MPH | rain 1hr in | rain 24hr in | rain mn in | humidity % | barometer mb |
| 20260906105358 | 70 | 341 | 0.0 | 1.0 | 0.00 | 0.22 | 0.16 | 99 | 1013.0 |
| 20260906104815 | 70 | 341 | 0.0 | 1.0 | 0.00 | 0.22 | 0.16 | 99 | 1012.9 |
| 20260906104358 | 70 | 341 | 0.0 | 1.0 | 0.00 | 0.22 | 0.16 | 98 | 1012.9 |
| 20260906103835 | 70 | 341 | 0.0 | 1.0 | 0.00 | 0.22 | 0.16 | 98 | 1012.7 |
| 20260906103332 | 70 | 341 | 0.0 | 1.0 | 0.00 | 0.22 | 0.16 | 98 | 1012.6 |
| 20260906102831 | 70 | 341 | 0.0 | 1.0 | 0.00 | 0.22 | 0.16 | 98 | 1012.7 |
| 20260906102330 | 70 | 341 | 0.0 | 1.0 | 0.00 | 0.22 | 0.16 | 98 | 1012.5 |
| 20260906101856 | 70 | 341 | 0.0 | 1.0 | 0.00 | 0.22 | 0.16 | 98 | 1012.5 |
| 20260906101337 | 70 | 341 | 0.0 | 1.0 | 0.00 | 0.22 | 0.16 | 98 | 1012.5 |
| 20260906100816 | 70 | 341 | 0.0 | 1.0 | 0.00 | 0.22 | 0.16 | 98 | 1012.3 |
| 20260906100317 | 70 | 341 | 0.0 | 1.0 | 0.00 | 0.22 | 0.16 | 98 | 1012.4 |
| 20260906095815 | 70 | 341 | 0.0 | 0.0 | 0.00 | 0.22 | 0.16 | 98 | 1012.3 |
| 20260906095315 | 70 | 341 | 0.0 | 2.0 | 0.00 | 0.22 | 0.16 | 98 | 1012.3 |
| 20260906094838 | 70 | 341 | 0.0 | 2.0 | 0.00 | 0.22 | 0.16 | 98 | 1012.3 |
| 20260906094317 | 70 | 341 | 0.0 | 3.0 | 0.00 | 0.22 | 0.16 | 98 | 1012.3 |
| 20260906093816 | 70 | 341 | 1.0 | 3.0 | 0.00 | 0.22 | 0.16 | 98 | 1012.4 |
| 20260906093316 | 70 | 341 | 0.0 | 1.0 | 0.00 | 0.23 | 0.16 | 98 | 1012.4 |
| 20260906092844 | 70 | 341 | 0.0 | 1.0 | 0.00 | 0.23 | 0.16 | 98 | 1012.3 |
| 20260906092322 | 70 | 341 | 0.0 | 1.0 | 0.00 | 0.23 | 0.16 | 98 | 1012.2 |
| 20260906091821 | 70 | 341 | 0.0 | 1.0 | 0.00 | 0.23 | 0.16 | 98 | 1012.2 |
| 20260906091322 | 70 | 341 | 0.0 | 1.0 | 0.00 | 0.23 | 0.16 | 98 | 1012.1 |
| 20260906090821 | 70 | 341 | 0.0 | 1.0 | 0.00 | 0.23 | 0.16 | 98 | 1011.9 |
| 20260906090320 | 70 | 341 | 0.0 | 1.0 | 0.00 | 0.23 | 0.16 | 98 | 1012.1 |
| 20260906085843 | 70 | 341 | 0.0 | 1.0 | 0.00 | 0.23 | 0.16 | 98 | 1012.2 |
| 20260906085321 | 70 | 341 | 0.0 | 1.0 | 0.01 | 0.23 | 0.16 | 98 | 1012.0 |
| 20260906084822 | 70 | 341 | 0.0 | 1.0 | 0.01 | 0.23 | 0.16 | 98 | 1012.0 |
| 20260906084322 | 70 | 341 | 0.0 | 2.0 | 0.01 | 0.23 | 0.16 | 98 | 1012.0 |
| 20260906083849 | 70 | 341 | 0.0 | 2.0 | 0.01 | 0.23 | 0.16 | 98 | 1012.0 |
| 20260906083327 | 70 | 341 | 0.0 | 1.0 | 0.01 | 0.23 | 0.16 | 98 | 1012.1 |
| 20260906082827 | 70 | 341 | 0.0 | 0.0 | 0.01 | 0.23 | 0.16 | 98 | 1012.1 |
| 20260906082328 | 70 | 341 | 0.0 | 0.0 | 0.02 | 0.23 | 0.16 | 98 | 1012.1 |
| 20260906081828 | 70 | 341 | 0.0 | 0.0 | 0.03 | 0.23 | 0.16 | 98 | 1012.1 |
| 20260906081326 | 70 | 341 | 0.0 | 1.0 | 0.03 | 0.23 | 0.16 | 98 | 1012.2 |
| 20260906080827 | 70 | 341 | 0.0 | 1.0 | 0.04 | 0.23 | 0.16 | 98 | 1012.1 |
| 20260906080349 | 70 | 341 | 0.0 | 1.0 | 0.04 | 0.23 | 0.16 | 98 | 1012.1 |
| 20260906075827 | 70 | 341 | 0.0 | 1.0 | 0.05 | 0.23 | 0.16 | 98 | 1012.1 |
| 20260906075354 | 70 | 341 | 0.0 | 1.0 | 0.04 | 0.22 | 0.15 | 98 | 1012.1 |
| 20260906074834 | 70 | 341 | 0.0 | 0.0 | 0.04 | 0.22 | 0.15 | 98 | 1012.0 |
| 20260906074314 | 70 | 341 | 0.0 | 0.0 | 0.04 | 0.22 | 0.15 | 98 | 1012.0 |
| 20260906073814 | 70 | 341 | 0.0 | 1.0 | 0.04 | 0.22 | 0.15 | 98 | 1012.0 |
| 20260906073314 | 70 | 341 | 0.0 | 1.0 | 0.05 | 0.22 | 0.15 | 98 | 1011.9 |
| 20260906072841 | 70 | 341 | 0.0 | 1.0 | 0.05 | 0.22 | 0.15 | 98 | 1012.0 |
| 20260906072320 | 70 | 341 | 0.0 | 1.0 | 0.04 | 0.21 | 0.14 | 98 | 1012.0 |
| 20260906071825 | 70 | 341 | 0.0 | 1.0 | 0.03 | 0.20 | 0.13 | 98 | 1012.1 |
| 20260906071320 | 70 | 341 | 0.0 | 3.0 | 0.02 | 0.19 | 0.12 | 98 | 1012.1 |
| 20260906070819 | 70 | 341 | 0.0 | 4.0 | 0.02 | 0.19 | 0.12 | 98 | 1012.1 |
| 20260906070324 | 70 | 341 | 1.0 | 4.0 | 0.02 | 0.19 | 0.12 | 98 | 1012.1 |
| 20260906065850 | 70 | 341 | 0.0 | 2.0 | 0.02 | 0.18 | 0.11 | 97 | 1012.1 |
| 20260906065329 | 70 | 341 | 1.0 | 3.0 | 0.02 | 0.18 | 0.11 | 97 | 1012.2 |
| 20260906064827 | 70 | 341 | 1.0 | 3.0 | 0.03 | 0.18 | 0.11 | 97 | 1012.1 |
| 20260906064325 | 70 | 341 | 0.0 | 1.0 | 0.06 | 0.18 | 0.11 | 97 | 1012.1 |
| 20260906063822 | 70 | 341 | 0.0 | 0.0 | 0.10 | 0.18 | 0.11 | 97 | 1012.1 |
| 20260906063322 | 70 | 341 | 0.0 | 0.0 | 0.10 | 0.17 | 0.10 | 97 | 1012.0 |
| 20260906062823 | 70 | 341 | 0.0 | 0.0 | 0.12 | 0.17 | 0.10 | 97 | 1012.0 |
| 20260906062324 | 70 | 341 | 0.0 | 0.0 | 0.13 | 0.17 | 0.10 | 97 | 1012.0 |
| 20260906061819 | 70 | 341 | 0.0 | 0.0 | 0.14 | 0.17 | 0.10 | 97 | 1012.1 |
| 20260906061319 | 70 | 341 | 0.0 | 1.0 | 0.14 | 0.17 | 0.10 | 97 | 1012.1 |
| 20260906060819 | 70 | 341 | 0.0 | 1.0 | 0.14 | 0.17 | 0.10 | 97 | 1012.1 |
| 20260906060346 | 70 | 341 | 0.0 | 0.0 | 0.15 | 0.17 | 0.10 | 97 | 1012.2 |
| 20260906055823 | 70 | 341 | 0.0 | 1.0 | 0.14 | 0.16 | 0.09 | 97 | 1012.3 |
| 20260906055323 | 70 | 341 | 0.0 | 1.0 | 0.14 | 0.16 | 0.09 | 96 | 1012.3 |
| 20260906054849 | 70 | 341 | 0.0 | 2.0 | 0.14 | 0.15 | 0.08 | 96 | 1012.5 |
| 20260906054354 | 70 | 341 | 0.0 | 2.0 | 0.10 | 0.11 | 0.04 | 96 | 1012.6 |
| 20260906053833 | 70 | 341 | 0.0 | 3.0 | 0.07 | 0.08 | 0.01 | 96 | 1012.7 |
| 20260906053334 | 70 | 341 | 0.0 | 5.0 | 0.06 | 0.07 | 0.07 | 95 | 1012.7 |
| 20260906052833 | 71 | 341 | 0.0 | 5.0 | 0.04 | 0.05 | 0.05 | 95 | 1012.7 |
| 20260906052333 | 71 | 341 | 0.0 | 2.0 | 0.03 | 0.04 | 0.04 | 95 | 1012.6 |
| 20260906051838 | 71 | 341 | 0.0 | 1.0 | 0.02 | 0.03 | 0.03 | 94 | 1012.5 |
| 20260906051316 | 71 | 341 | 0.0 | 1.0 | 0.02 | 0.03 | 0.03 | 94 | 1012.6 |
| 20260906050817 | 71 | 341 | 0.0 | 1.0 | 0.02 | 0.03 | 0.03 | 94 | 1012.5 |
| 20260906050317 | 71 | 341 | 0.0 | 1.0 | 0.01 | 0.02 | 0.02 | 93 | 1012.4 |
| 20260906045819 | 71 | 341 | 0.0 | 0.0 | 0.01 | 0.02 | 0.02 | 93 | 1012.5 |
| 20260906045318 | 71 | 341 | 0.0 | 1.0 | 0.00 | 0.01 | 0.01 | 93 | 1012.3 |
| 20260906044817 | 71 | 341 | 0.0 | 1.0 | 0.00 | 0.01 | 0.01 | 93 | 1012.3 |
| 20260906044317 | 71 | 341 | 0.0 | 1.0 | 0.00 | 0.01 | 0.01 | 93 | 1012.3 |
| 20260906043859 | 71 | 341 | 0.0 | 1.0 | 0.00 | 0.01 | 0.01 | 94 | 1012.5 |
| 20260906043316 | 71 | 341 | 0.0 | 0.0 | 0.00 | 0.01 | 0.01 | 94 | 1012.5 |
| 20260906042816 | 71 | 341 | 0.0 | 1.0 | 0.00 | 0.01 | 0.01 | 94 | 1012.4 |
| 20260906042315 | 70 | 341 | 0.0 | 1.0 | 0.00 | 0.01 | 0.01 | 94 | 1012.3 |
| 20260906041842 | 70 | 341 | 0.0 | 0.0 | 0.00 | 0.01 | 0.01 | 94 | 1012.1 |
| 20260906041319 | 70 | 341 | 0.0 | 0.0 | 0.00 | 0.01 | 0.01 | 94 | 1012.1 |
| 20260906040820 | 70 | 341 | 0.0 | 0.0 | 0.00 | 0.01 | 0.01 | 94 | 1012.4 |
| 20260906040323 | 70 | 341 | 0.0 | 0.0 | 0.00 | 0.01 | 0.01 | 94 | 1012.5 |
| 20260906035823 | 70 | 341 | 0.0 | 1.0 | 0.00 | 0.01 | 0.01 | 94 | 1012.4 |
| 20260906035324 | 70 | 341 | 0.0 | 1.0 | 0.00 | 0.01 | 0.01 | 93 | 1012.3 |
| 20260906034825 | 70 | 341 | 0.0 | 0.0 | 0.00 | 0.01 | 0.01 | 93 | 1012.2 |
| 20260906034324 | 70 | 341 | 0.0 | 0.0 | 0.00 | 0.01 | 0.01 | 93 | 1012.3 |
| 20260906033825 | 70 | 341 | 0.0 | 0.0 | 0.00 | 0.01 | 0.01 | 93 | 1012.4 |
| 20260906033352 | 70 | 341 | 0.0 | 1.0 | 0.00 | 0.01 | 0.01 | 92 | 1012.1 |
| 20260906032833 | 71 | 341 | 0.0 | 1.0 | 0.00 | 0.01 | 0.01 | 93 | 1012.3 |
| 20260906032333 | 71 | 341 | 0.0 | 1.0 | 0.00 | 0.01 | 0.01 | 93 | 1012.1 |
| 20260906031812 | 71 | 341 | 0.0 | 0.0 | 0.00 | 0.01 | 0.01 | 93 | 1012.3 |
| 20260906031314 | 71 | 341 | 0.0 | 0.0 | 0.00 | 0.01 | 0.01 | 92 | 1012.4 |
| 20260906030841 | 71 | 341 | 0.0 | 0.0 | 0.00 | 0.01 | 0.01 | 92 | 1012.3 |
| 20260906030325 | 71 | 341 | 0.0 | 1.0 | 0.00 | 0.01 | 0.01 | 92 | 1012.2 |
| 20260906025848 | 71 | 341 | 0.0 | 1.0 | 0.00 | 0.01 | 0.01 | 92 | 1012.3 |
| 20260906025327 | 71 | 341 | 0.0 | 1.0 | 0.00 | 0.01 | 0.01 | 93 | 1012.3 |
| 20260906024854 | 70 | 341 | 0.0 | 1.0 | 0.00 | 0.01 | 0.01 | 94 | 1012.3 |
| 20260906024334 | 70 | 341 | 0.0 | 0.0 | 0.00 | 0.01 | 0.01 | 94 | 1012.4 |
| 20260906023835 | 70 | 341 | 0.0 | 0.0 | 0.00 | 0.01 | 0.01 | 94 | 1012.5 |
| 20260906023336 | 70 | 341 | 0.0 | 0.0 | 0.00 | 0.01 | 0.01 | 94 | 1012.3 |
| 20260906022833 | 71 | 341 | 0.0 | 1.0 | 0.00 | 0.01 | 0.01 | 94 | 1012.3 |
| 20260906022334 | 70 | 341 | 0.0 | 1.0 | 0.00 | 0.01 | 0.01 | 95 | 1012.4 |
| 20260906021833 | 70 | 341 | 0.0 | 0.0 | 0.00 | 0.01 | 0.01 | 95 | 1012.3 |
| 20260906021330 | 70 | 341 | 0.0 | 0.0 | 0.00 | 0.01 | 0.01 | 94 | 1012.3 |
| 20260906020857 | 71 | 341 | 0.0 | 0.0 | 0.00 | 0.01 | 0.01 | 94 | 1012.3 |
| 20260906020333 | 71 | 341 | 0.0 | 0.0 | 0.00 | 0.01 | 0.01 | 94 | 1012.2 |
| 20260906015812 | 71 | 341 | 0.0 | 0.0 | 0.00 | 0.01 | 0.01 | 94 | 1012.1 |
| 20260906015314 | 71 | 341 | 0.0 | 0.0 | 0.00 | 0.01 | 0.01 | 94 | 1012.2 |
| 20260906014815 | 71 | 341 | 0.0 | 0.0 | 0.00 | 0.01 | 0.01 | 94 | 1012.2 |
| 20260906014315 | 71 | 341 | 0.0 | 0.0 | 0.00 | 0.01 | 0.01 | 93 | 1012.1 |
| 20260906013838 | 71 | 341 | 0.0 | 0.0 | 0.00 | 0.01 | 0.01 | 93 | 1012.1 |
| 20260906013336 | 71 | 341 | 0.0 | 0.0 | 0.00 | 0.01 | 0.01 | 92 | 1012.1 |
| 20260906012816 | 71 | 341 | 0.0 | 0.0 | 0.00 | 0.01 | 0.01 | 92 | 1011.9 |
| 20260906012315 | 72 | 341 | 0.0 | 0.0 | 0.00 | 0.01 | 0.01 | 93 | 1011.8 |
| 20260906011816 | 72 | 341 | 0.0 | 0.0 | 0.00 | 0.01 | 0.01 | 93 | 1011.7 |
| 20260906011317 | 72 | 341 | 0.0 | 0.0 | 0.00 | 0.01 | 0.01 | 92 | 1011.7 |
| 20260906010813 | 72 | 341 | 0.0 | 0.0 | 0.00 | 0.01 | 0.01 | 92 | 1011.7 |
| 20260906010315 | 72 | 341 | 0.0 | 0.0 | 0.00 | 0.01 | 0.01 | 91 | 1011.6 |
| 20260906005814 | 73 | 341 | 0.0 | 0.0 | 0.00 | 0.01 | 0.01 | 91 | 1011.6 |
| 20260906005314 | 73 | 341 | 0.0 | 0.0 | 0.00 | 0.01 | 0.01 | 90 | 1011.7 |
| 20260906004815 | 73 | 341 | 0.0 | 0.0 | 0.00 | 0.01 | 0.01 | 90 | 1011.6 |
| 20260906004316 | 73 | 341 | 0.0 | 0.0 | 0.00 | 0.01 | 0.01 | 89 | 1011.6 |
| 20260906003815 | 74 | 341 | 0.0 | 0.0 | 0.00 | 0.01 | 0.01 | 89 | 1011.4 |
| 20260906003315 | 74 | 341 | 0.0 | 0.0 | 0.00 | 0.01 | 0.01 | 88 | 1011.3 |
| 20260906002815 | 74 | 341 | 0.0 | 0.0 | 0.00 | 0.01 | 0.01 | 87 | 1011.4 |
| 20260906002315 | 75 | 341 | 0.0 | 0.0 | 0.00 | 0.01 | 0.01 | 87 | 1011.4 |
| 20260906001813 | 75 | 341 | 0.0 | 0.0 | 0.00 | 0.01 | 0.01 | 86 | 1011.4 |
| 20260906001340 | 76 | 341 | 0.0 | 0.0 | 0.00 | 0.01 | 0.01 | 85 | 1011.3 |
| 20260906000815 | 76 | 341 | 0.0 | 0.0 | 0.00 | 0.01 | 0.01 | 85 | 1011.2 |
| 20260906000315 | 77 | 341 | 0.0 | 0.0 | 0.00 | 0.01 | 0.01 | 84 | 1011.2 |
| 20260905235842 | 78 | 341 | 0.0 | 0.0 | 0.00 | 0.01 | 0.01 | 82 | 1011.1 |
| 20260905235349 | 78 | 341 | 0.0 | 0.0 | 0.00 | 0.01 | 0.01 | 81 | 1011.0 |
| 20260905234829 | 79 | 341 | 0.0 | 0.0 | 0.00 | 0.01 | 0.01 | 80 | 1011.1 |
| 20260905234328 | 80 | 341 | 0.0 | 0.0 | 0.00 | 0.01 | 0.01 | 78 | 1011.1 |
| 20260905233855 | 81 | 341 | 0.0 | 0.0 | 0.00 | 0.01 | 0.01 | 77 | 1010.9 |
| 20260905233333 | 83 | 341 | 0.0 | 0.0 | 0.00 | 0.01 | 0.01 | 74 | 1010.8 |
| 20260905232832 | 85 | 341 | 0.0 | 0.0 | 0.00 | 0.01 | 0.01 | 71 | 1010.7 |
| 20260905232332 | 86 | 341 | 0.0 | 0.0 | 0.00 | 0.01 | 0.01 | 70 | 1010.7 |
| 20260905231827 | 86 | 341 | 0.0 | 0.0 | 0.00 | 0.01 | 0.01 | 70 | 1010.8 |
| 20260905231327 | 87 | 341 | 0.0 | 1.0 | 0.00 | 0.01 | 0.01 | 69 | 1010.8 |
| 20260905230827 | 87 | 341 | 0.0 | 1.0 | 0.00 | 0.01 | 0.01 | 68 | 1010.9 |
| 20260905230328 | 88 | 341 | 0.0 | 0.0 | 0.00 | 0.01 | 0.01 | 68 | 1010.9 |
| 20260905225835 | 87 | 341 | 0.0 | 3.0 | 0.00 | 0.01 | 0.01 | 69 | 1010.8 |
| 20260905225334 | 87 | 341 | 0.0 | 3.0 | 0.00 | 0.01 | 0.01 | 69 | 1010.7 |
| 20260905224833 | 87 | 341 | 0.0 | 3.0 | 0.00 | 0.01 | 0.01 | 68 | 1010.9 |
| 20260905224333 | 88 | 341 | 0.0 | 1.0 | 0.00 | 0.01 | 0.01 | 68 | 1010.9 |
| 20260905223812 | 88 | 341 | 0.0 | 1.0 | 0.00 | 0.01 | 0.01 | 68 | 1011.0 |
| 20260905223313 | 87 | 341 | 0.0 | 2.0 | 0.00 | 0.08 | 0.01 | 69 | 1010.8 |
| 20260905222812 | 87 | 341 | 0.0 | 2.0 | 0.00 | 0.08 | 0.01 | 70 | 1010.9 |
| 20260905222313 | 87 | 341 | 0.0 | 2.0 | 0.00 | 0.08 | 0.01 | 70 | 1010.8 |
| 20260905221834 | 86 | 341 | 0.0 | 3.0 | 0.00 | 0.08 | 0.01 | 71 | 1010.8 |
| 20260905221313 | 86 | 341 | 1.0 | 3.0 | 0.00 | 0.08 | 0.01 | 69 | 1010.8 |
| 20260905220813 | 86 | 341 | 0.0 | 1.0 | 0.00 | 0.08 | 0.01 | 69 | 1010.7 |
| 20260905220341 | 87 | 341 | 0.0 | 1.0 | 0.00 | 0.08 | 0.01 | 67 | 1010.8 |
| 20260905215820 | 88 | 341 | 0.0 | 1.0 | 0.00 | 0.08 | 0.01 | 66 | 1010.8 |
| 20260905215323 | 88 | 341 | 0.0 | 1.0 | 0.00 | 0.08 | 0.01 | 66 | 1010.8 |
| 20260905214820 | 88 | 341 | 0.0 | 1.0 | 0.00 | 0.08 | 0.01 | 67 | 1010.8 |
| 20260905214316 | 88 | 341 | 0.0 | 1.0 | 0.00 | 0.08 | 0.01 | 68 | 1010.9 |
| 20260905213834 | 88 | 341 | 0.0 | 1.0 | 0.00 | 0.08 | 0.01 | 68 | 1010.8 |
| 20260905213328 | 88 | 341 | 0.0 | 2.0 | 0.00 | 0.09 | 0.01 | 67 | 1010.8 |
| 20260905212829 | 89 | 341 | 0.0 | 2.0 | 0.00 | 0.09 | 0.01 | 66 | 1010.8 |
| 20260905212356 | 90 | 341 | 0.0 | 5.0 | 0.00 | 0.09 | 0.01 | 65 | 1010.9 |
| 20260905211835 | 90 | 341 | 1.0 | 6.0 | 0.00 | 0.09 | 0.01 | 64 | 1010.8 |
| 20260905211335 | 90 | 341 | 2.0 | 6.0 | 0.00 | 0.09 | 0.01 | 63 | 1010.8 |
| 20260905210813 | 91 | 341 | 1.0 | 6.0 | 0.00 | 0.09 | 0.01 | 63 | 1010.5 |
| 20260905210338 | 92 | 341 | 1.0 | 3.0 | 0.00 | 0.09 | 0.01 | 60 | 1010.6 |
| 20260905205814 | 92 | 341 | 0.0 | 2.0 | 0.00 | 0.09 | 0.01 | 62 | 1010.6 |
| 20260905205313 | 91 | 341 | 0.0 | 1.0 | 0.00 | 0.09 | 0.01 | 62 | 1010.5 |
| 20260905204834 | 91 | 341 | 0.0 | 1.0 | 0.00 | 0.09 | 0.01 | 61 | 1010.6 |
| 20260905204313 | 91 | 341 | 0.0 | 1.0 | 0.00 | 0.09 | 0.01 | 62 | 1010.6 |
| 20260905203814 | 90 | 341 | 0.0 | 1.0 | 0.00 | 0.09 | 0.01 | 62 | 1010.7 |
| 20260905203339 | 89 | 341 | 0.0 | 1.0 | 0.00 | 0.09 | 0.01 | 67 | 1010.7 |
| 20260905202816 | 88 | 341 | 0.0 | 1.0 | 0.00 | 0.09 | 0.01 | 65 | 1010.7 |
| 20260905202316 | 87 | 341 | 0.0 | 5.0 | 0.00 | 0.09 | 0.01 | 66 | 1010.9 |
| 20260905201821 | 87 | 341 | 1.0 | 6.0 | 0.00 | 0.09 | 0.01 | 65 | 1010.9 |
| 20260905201321 | 87 | 341 | 2.0 | 6.0 | 0.00 | 0.09 | 0.01 | 65 | 1011.0 |
| 20260905200821 | 87 | 341 | 0.0 | 4.0 | 0.00 | 0.09 | 0.01 | 69 | 1010.9 |
| 20260905200318 | 87 | 341 | 1.0 | 4.0 | 0.00 | 0.09 | 0.01 | 67 | 1011.0 |
| 20260905195813 | 87 | 341 | 1.0 | 3.0 | 0.00 | 0.09 | 0.01 | 68 | 1010.7 |
| 20260905195317 | 87 | 341 | 0.0 | 1.0 | 0.00 | 0.09 | 0.01 | 68 | 1010.9 |
| 20260905194817 | 86 | 341 | 0.0 | 4.0 | 0.00 | 0.09 | 0.01 | 67 | 1010.9 |
| 20260905194316 | 86 | 341 | 1.0 | 7.0 | 0.00 | 0.09 | 0.01 | 67 | 1011.0 |
| 20260905193815 | 86 | 341 | 2.0 | 7.0 | 0.00 | 0.09 | 0.01 | 66 | 1011.1 |
| 20260905193312 | 86 | 341 | 1.0 | 2.0 | 0.00 | 0.09 | 0.01 | 68 | 1011.1 |
| 20260905192817 | 86 | 341 | 0.0 | 3.0 | 0.00 | 0.09 | 0.01 | 69 | 1011.0 |
| 20260905192315 | 86 | 341 | 1.0 | 3.0 | 0.00 | 0.09 | 0.01 | 68 | 1011.0 |
| 20260905191819 | 86 | 341 | 0.0 | 3.0 | 0.00 | 0.09 | 0.01 | 71 | 1011.1 |
| 20260905191317 | 85 | 341 | 0.0 | 3.0 | 0.00 | 0.09 | 0.01 | 72 | 1011.0 |
| 20260905190813 | 85 | 341 | 0.0 | 3.0 | 0.00 | 0.09 | 0.01 | 72 | 1011.2 |
| 20260905190317 | 86 | 341 | 1.0 | 3.0 | 0.00 | 0.09 | 0.01 | 70 | 1011.1 |
| 20260905185818 | 87 | 341 | 1.0 | 3.0 | 0.00 | 0.09 | 0.01 | 68 | 1011.2 |
| 20260905185321 | 87 | 341 | 1.0 | 4.0 | 0.00 | 0.09 | 0.01 | 69 | 1011.1 |
| 20260905184820 | 87 | 341 | 1.0 | 4.0 | 0.00 | 0.09 | 0.01 | 68 | 1011.2 |
| 20260905184346 | 86 | 341 | 0.0 | 4.0 | 0.00 | 0.09 | 0.01 | 70 | 1011.2 |
| 20260905183819 | 86 | 341 | 0.0 | 2.0 | 0.00 | 0.09 | 0.01 | 70 | 1011.2 |
| 20260905183318 | 86 | 341 | 1.0 | 2.0 | 0.00 | 0.09 | 0.01 | 67 | 1011.2 |
| 20260905182820 | 87 | 341 | 0.0 | 4.0 | 0.00 | 0.09 | 0.01 | 66 | 1011.1 |
| 20260905182315 | 87 | 341 | 1.0 | 4.0 | 0.00 | 0.09 | 0.01 | 65 | 1011.0 |
| 20260905181839 | 87 | 341 | 0.0 | 4.0 | 0.00 | 0.09 | 0.01 | 67 | 1011.2 |
| 20260905181337 | 87 | 341 | 1.0 | 4.0 | 0.00 | 0.09 | 0.01 | 66 | 1011.2 |
| 20260905180836 | 87 | 341 | 0.0 | 5.0 | 0.00 | 0.09 | 0.01 | 67 | 1011.4 |
| 20260905180317 | 87 | 341 | 0.0 | 5.0 | 0.00 | 0.09 | 0.01 | 67 | 1011.7 |
| 20260905175817 | 87 | 341 | 0.0 | 3.0 | 0.00 | 0.09 | 0.01 | 69 | 1011.7 |
| 20260905175315 | 86 | 341 | 0.0 | 3.0 | 0.00 | 0.09 | 0.01 | 69 | 1012.0 |
| 20260905174814 | 85 | 341 | 1.0 | 3.0 | 0.00 | 0.09 | 0.01 | 69 | 1012.2 |
| 20260905174314 | 85 | 341 | 0.0 | 3.0 | 0.00 | 0.09 | 0.01 | 72 | 1012.3 |
| 20260905173814 | 84 | 341 | 0.0 | 5.0 | 0.00 | 0.09 | 0.01 | 74 | 1012.4 |
| 20260905173313 | 84 | 341 | 1.0 | 5.0 | 0.00 | 0.09 | 0.01 | 73 | 1012.4 |
| 20260905172836 | 84 | 341 | 1.0 | 4.0 | 0.00 | 0.09 | 0.01 | 74 | 1012.5 |
| 20260905172334 | 84 | 341 | 1.0 | 4.0 | 0.00 | 0.09 | 0.01 | 74 | 1012.4 |
| 20260905171833 | 84 | 341 | 0.0 | 3.0 | 0.00 | 0.09 | 0.01 | 75 | 1012.4 |
| 20260905171335 | 84 | 341 | 0.0 | 2.0 | 0.00 | 0.09 | 0.01 | 76 | 1012.5 |
| 20260905170834 | 84 | 341 | 0.0 | 7.0 | 0.00 | 0.09 | 0.01 | 74 | 1012.5 |
| 20260905170313 | 85 | 341 | 2.0 | 10.0 | 0.00 | 0.09 | 0.01 | 74 | 1012.4 |
| 20260905165813 | 86 | 341 | 2.0 | 6.0 | 0.00 | 0.09 | 0.01 | 73 | 1012.4 |
| 20260905165331 | 86 | 341 | 1.0 | 6.0 | 0.00 | 0.09 | 0.01 | 72 | 1012.3 |
| 20260905164827 | 87 | 341 | 2.0 | 6.0 | 0.00 | 0.09 | 0.01 | 71 | 1012.3 |
| 20260905164325 | 87 | 341 | 1.0 | 4.0 | 0.00 | 0.09 | 0.01 | 71 | 1012.3 |
| 20260905163851 | 87 | 341 | 2.0 | 6.0 | 0.00 | 0.09 | 0.01 | 71 | 1012.4 |
| 20260905163356 | 87 | 341 | 1.0 | 6.0 | 0.00 | 0.09 | 0.01 | 69 | 1012.4 |
| 20260905162834 | 88 | 341 | 2.0 | 7.0 | 0.00 | 0.09 | 0.01 | 69 | 1012.3 |
| 20260905162313 | 88 | 341 | 2.0 | 7.0 | 0.00 | 0.09 | 0.01 | 69 | 1012.6 |
| 20260905161812 | 88 | 341 | 0.0 | 5.0 | 0.00 | 0.09 | 0.01 | 69 | 1012.5 |
| 20260905161337 | 88 | 341 | 1.0 | 2.0 | 0.00 | 0.09 | 0.01 | 67 | 1012.5 |
| 20260905160836 | 88 | 341 | 0.0 | 4.0 | 0.00 | 0.09 | 0.01 | 67 | 1012.5 |
| 20260905160336 | 88 | 341 | 1.0 | 3.0 | 0.00 | 0.09 | 0.01 | 67 | 1012.7 |
| 20260905155814 | 88 | 341 | 0.0 | 2.0 | 0.00 | 0.09 | 0.01 | 67 | 1012.8 |
| 20260905155340 | 88 | 341 | 0.0 | 2.0 | 0.00 | 0.09 | 0.01 | 65 | 1012.8 |
| 20260905154818 | 88 | 341 | 0.0 | 3.0 | 0.00 | 0.09 | 0.01 | 63 | 1012.9 |
| 20260905154317 | 89 | 341 | 1.0 | 3.0 | 0.00 | 0.09 | 0.01 | 64 | 1013.0 |
| 20260905153816 | 90 | 341 | 0.0 | 2.0 | 0.00 | 0.09 | 0.01 | 64 | 1012.6 |
| 20260905153315 | 90 | 341 | 1.0 | 2.0 | 0.00 | 0.09 | 0.01 | 64 | 1012.3 |
| 20260905152816 | 90 | 341 | 0.0 | 5.0 | 0.00 | 0.09 | 0.01 | 65 | 1012.3 |
| 20260905152315 | 90 | 341 | 1.0 | 5.0 | 0.00 | 0.09 | 0.01 | 63 | 1012.2 |
| 20260905151813 | 90 | 341 | 0.0 | 2.0 | 0.00 | 0.09 | 0.01 | 64 | 1012.3 |
| 20260905151312 | 89 | 341 | 0.0 | 2.0 | 0.00 | 0.09 | 0.01 | 68 | 1012.3 |
| 20260905150834 | 88 | 341 | 1.0 | 2.0 | 0.00 | 0.09 | 0.01 | 66 | 1012.5 |
| 20260905150334 | 88 | 341 | 0.0 | 2.0 | 0.00 | 0.09 | 0.01 | 67 | 1012.5 |
| 20260905145831 | 87 | 341 | 0.0 | 3.0 | 0.00 | 0.09 | 0.01 | 67 | 1012.5 |
| 20260905145357 | 86 | 341 | 1.0 | 3.0 | 0.00 | 0.09 | 0.01 | 68 | 1012.5 |
| 20260905144835 | 86 | 341 | 1.0 | 3.0 | 0.00 | 0.09 | 0.01 | 68 | 1012.6 |
| 20260905144315 | 85 | 341 | 0.0 | 2.0 | 0.00 | 0.09 | 0.01 | 70 | 1012.3 |
| 20260905143842 | 85 | 341 | 0.0 | 2.0 | 0.00 | 0.09 | 0.01 | 71 | 1012.4 |
| 20260905143321 | 84 | 341 | 1.0 | 2.0 | 0.00 | 0.09 | 0.01 | 74 | 1012.4 |
| 20260905142820 | 84 | 341 | 1.0 | 3.0 | 0.00 | 0.09 | 0.01 | 74 | 1012.4 |
| 20260905142319 | 83 | 341 | 1.0 | 3.0 | 0.00 | 0.09 | 0.01 | 75 | 1012.3 |
| 20260905141814 | 83 | 341 | 0.0 | 3.0 | 0.00 | 0.09 | 0.01 | 77 | 1012.3 |
| 20260905141315 | 82 | 341 | 1.0 | 3.0 | 0.00 | 0.09 | 0.01 | 78 | 1012.4 |
| 20260905140814 | 82 | 341 | 1.0 | 3.0 | 0.00 | 0.09 | 0.01 | 80 | 1012.2 |
| 20260905140313 | 81 | 341 | 1.0 | 3.0 | 0.00 | 0.09 | 0.01 | 80 | 1012.1 |
| 20260905135842 | 81 | 341 | 0.0 | 2.0 | 0.00 | 0.09 | 0.01 | 80 | 1012.2 |
| 20260905135320 | 81 | 341 | 0.0 | 3.0 | 0.00 | 0.09 | 0.01 | 82 | 1012.0 |
| 20260905134819 | 80 | 341 | 1.0 | 3.0 | 0.00 | 0.09 | 0.01 | 83 | 1011.9 |
| 20260905134318 | 79 | 341 | 1.0 | 3.0 | 0.00 | 0.09 | 0.01 | 84 | 1011.7 |
| 20260905133845 | 79 | 341 | 0.0 | 1.0 | 0.00 | 0.09 | 0.01 | 85 | 1011.7 |
| 20260905133323 | 79 | 341 | 0.0 | 1.0 | 0.00 | 0.09 | 0.01 | 85 | 1011.6 |
| 20260905132822 | 78 | 341 | 0.0 | 1.0 | 0.00 | 0.09 | 0.01 | 86 | 1011.7 |
| 20260905132344 | 78 | 341 | 0.0 | 3.0 | 0.00 | 0.09 | 0.01 | 86 | 1011.7 |
| 20260905131822 | 77 | 341 | 0.0 | 5.0 | 0.00 | 0.09 | 0.01 | 87 | 1011.8 |
| 20260905131321 | 77 | 341 | 1.0 | 5.0 | 0.00 | 0.09 | 0.01 | 87 | 1011.7 |
| 20260905130822 | 77 | 341 | 0.0 | 2.0 | 0.00 | 0.09 | 0.01 | 88 | 1011.7 |
| 20260905130322 | 76 | 341 | 0.0 | 2.0 | 0.00 | 0.09 | 0.01 | 87 | 1011.6 |
| 20260905125822 | 76 | 341 | 0.0 | 3.0 | 0.00 | 0.09 | 0.01 | 88 | 1011.6 |
| 20260905125348 | 76 | 341 | 0.0 | 2.0 | 0.00 | 0.09 | 0.01 | 88 | 1011.6 |
| 20260905124828 | 76 | 341 | 0.0 | 1.0 | 0.00 | 0.09 | 0.01 | 88 | 1011.5 |
| 20260905124327 | 76 | 341 | 0.0 | 3.0 | 0.00 | 0.09 | 0.01 | 88 | 1011.6 |
| 20260905123828 | 76 | 341 | 1.0 | 3.0 | 0.00 | 0.09 | 0.01 | 88 | 1011.7 |
| 20260905123326 | 75 | 341 | 0.0 | 3.0 | 0.00 | 0.09 | 0.01 | 89 | 1011.8 |
| 20260905122828 | 75 | 341 | 0.0 | 6.0 | 0.00 | 0.09 | 0.01 | 88 | 1011.8 |
| 20260905122327 | 75 | 341 | 1.0 | 6.0 | 0.00 | 0.09 | 0.01 | 89 | 1011.7 |
| 20260905121827 | 75 | 341 | 1.0 | 3.0 | 0.00 | 0.09 | 0.01 | 89 | 1011.7 |
| 20260905121328 | 74 | 341 | 0.0 | 4.0 | 0.00 | 0.09 | 0.01 | 89 | 1011.5 |
| 20260905120826 | 74 | 341 | 0.0 | 2.0 | 0.00 | 0.09 | 0.01 | 90 | 1011.7 |
| 20260905120325 | 74 | 341 | 1.0 | 2.0 | 0.00 | 0.09 | 0.01 | 91 | 1011.6 |
| 20260905115823 | 73 | 341 | 0.0 | 1.0 | 0.00 | 0.09 | 0.01 | 92 | 1011.6 |
| 20260905115322 | 73 | 341 | 0.0 | 2.0 | 0.00 | 0.09 | 0.01 | 92 | 1011.4 |
| 20260905114821 | 73 | 341 | 0.0 | 2.0 | 0.00 | 0.09 | 0.01 | 91 | 1011.4 |
| 20260905114321 | 73 | 341 | 0.0 | 1.0 | 0.00 | 0.09 | 0.01 | 92 | 1011.3 |
| 20260905113821 | 73 | 341 | 0.0 | 3.0 | 0.00 | 0.09 | 0.01 | 92 | 1011.3 |
| 20260905113345 | 72 | 341 | 1.0 | 3.0 | 0.00 | 0.09 | 0.01 | 92 | 1011.2 |
| 20260905112825 | 72 | 341 | 0.0 | 1.0 | 0.00 | 0.09 | 0.01 | 93 | 1011.3 |
| 20260905112325 | 72 | 341 | 0.0 | 2.0 | 0.00 | 0.09 | 0.01 | 93 | 1011.3 |
| 20260905111831 | 72 | 341 | 1.0 | 2.0 | 0.00 | 0.09 | 0.01 | 93 | 1011.2 |
| 20260905111334 | 72 | 341 | 0.0 | 1.0 | 0.00 | 0.09 | 0.01 | 93 | 1011.2 |
| 20260905110833 | 72 | 341 | 0.0 | 1.0 | 0.00 | 0.09 | 0.01 | 93 | 1011.3 |
| 20260905110333 | 72 | 341 | 0.0 | 1.0 | 0.00 | 0.09 | 0.01 | 93 | 1011.4 |
| 20260905105834 | 72 | 341 | 0.0 | 1.0 | 0.00 | 0.09 | 0.01 | 93 | 1011.2 |